createdAt,value
2023-01-23T00:00:34.146Z,14.38
2023-01-23T00:03:36.428Z,12.27
2023-01-23T00:06:38.353Z,11.27
2023-01-23T00:09:40.610Z,10.43
2023-01-23T00:12:44.470Z,10.68
2023-01-23T00:15:47.974Z,9.20
2023-01-23T00:18:51.353Z,11.00
2023-01-23T00:21:53.284Z,8.55
2023-01-23T00:24:55.133Z,11.13
2023-01-23T00:27:57.285Z,10.20
2023-01-23T00:31:05.502Z,12.02
2023-01-23T00:34:11.314Z,10.23
2023-01-23T00:37:13.980Z,8.65
2023-01-23T00:40:16.238Z,11.70
2023-01-23T00:43:19.307Z,10.88
2023-01-23T00:46:22.128Z,10.32
2023-01-23T00:49:25.990Z,9.90
2023-01-23T00:52:28.267Z,9.52
2023-01-23T00:55:30.319Z,9.00
2023-01-23T00:58:33.250Z,9.88
2023-01-23T01:01:35.773Z,8.48
2023-01-23T01:04:38.264Z,9.85
2023-01-23T01:07:40.549Z,10.95
2023-01-23T01:10:43.341Z,10.50
2023-01-23T01:13:45.598Z,9.02
2023-01-23T01:16:48.348Z,9.93
2023-01-23T01:19:50.291Z,10.23
2023-01-23T01:22:53.871Z,6.95
2023-01-23T01:25:59.667Z,8.90
2023-01-23T01:29:02.890Z,6.82
2023-01-23T01:32:05.069Z,8.10
2023-01-23T01:35:09.958Z,8.30
2023-01-23T01:38:12.110Z,8.20
2023-01-23T01:41:15.694Z,7.93
2023-01-23T01:44:20.450Z,6.95
2023-01-23T01:47:22.559Z,7.55
2023-01-23T01:50:24.712Z,6.82
2023-01-23T01:53:29.121Z,6.50
2023-01-23T01:56:34.856Z,7.50
2023-01-23T01:59:43.691Z,7.43
2023-01-23T02:02:51.448Z,6.15
2023-01-23T02:05:53.753Z,8.45
2023-01-23T02:09:18.701Z,8.60
2023-01-23T02:12:21.035Z,6.93
2023-01-23T02:15:23.094Z,8.68
2023-01-23T02:18:27.034Z,8.85
2023-01-23T02:21:30.594Z,8.57
2023-01-23T02:24:45.155Z,9.05
2023-01-23T02:27:47.504Z,7.27
2023-01-23T02:30:51.238Z,7.78
2023-01-23T02:33:57.808Z,7.72
2023-01-23T02:37:03.444Z,7.72
2023-01-23T02:40:07.037Z,5.22
2023-01-23T02:43:14.337Z,5.03
2023-01-23T02:46:19.224Z,7.85
2023-01-23T02:49:22.300Z,6.00
2023-01-23T02:52:24.807Z,5.65
2023-01-23T02:55:29.882Z,5.15
2023-01-23T02:58:50.352Z,6.77
2023-01-23T03:01:52.662Z,7.07
2023-01-23T03:04:54.654Z,6.32
2023-01-23T03:07:59.069Z,6.80
2023-01-23T03:11:04.314Z,5.07
2023-01-23T03:14:10.859Z,5.07
2023-01-23T03:17:14.989Z,4.55
2023-01-23T03:20:22.512Z,6.18
2023-01-23T03:23:24.288Z,6.30
2023-01-23T03:26:26.318Z,5.78
2023-01-23T03:29:46.909Z,6.00
2023-01-23T03:32:49.478Z,4.55
2023-01-23T03:35:51.600Z,4.82
2023-01-23T03:39:13.481Z,5.82
2023-01-23T03:42:15.998Z,5.20
2023-01-23T03:45:21.527Z,4.87
2023-01-23T03:48:23.683Z,3.95
2023-01-23T03:51:25.776Z,4.10
2023-01-23T03:54:28.539Z,3.35
2023-01-23T03:57:30.553Z,5.78
2023-01-23T04:00:33.011Z,3.57
2023-01-23T04:03:36.338Z,3.78
2023-01-23T04:06:39.690Z,3.40
2023-01-23T04:09:41.935Z,3.97
2023-01-23T04:12:43.977Z,4.88
2023-01-23T04:15:45.923Z,4.60
2023-01-23T04:18:48.533Z,3.60
2023-01-23T04:21:50.745Z,4.15
2023-01-23T04:24:52.822Z,5.07
2023-01-23T04:27:54.997Z,2.80
2023-01-23T04:31:00.409Z,3.20
2023-01-23T04:34:04.015Z,5.00
2023-01-23T04:37:06.742Z,4.05
2023-01-23T04:40:10.010Z,4.80
2023-01-23T04:43:12.477Z,4.78
2023-01-23T04:46:14.793Z,3.37
2023-01-23T04:49:18.861Z,3.88
2023-01-23T04:52:20.924Z,4.30
2023-01-23T04:55:23.640Z,3.72
2023-01-23T04:58:25.854Z,4.05
2023-01-23T05:01:28.143Z,3.90
2023-01-23T05:04:30.309Z,3.78
2023-01-23T05:07:32.280Z,4.40
2023-01-23T05:10:34.511Z,4.32
2023-01-23T05:13:36.585Z,4.25
2023-01-23T05:16:40.061Z,3.77
2023-01-23T05:19:42.050Z,4.07
2023-01-23T05:22:53.364Z,3.92
2023-01-23T05:25:55.564Z,4.13
2023-01-23T05:28:57.940Z,4.22
2023-01-23T05:31:59.983Z,2.60
2023-01-23T05:35:02.190Z,3.20
2023-01-23T05:38:06.475Z,2.92
2023-01-23T05:41:08.431Z,3.45
2023-01-23T05:44:10.694Z,4.55
2023-01-23T05:47:12.940Z,3.80
2023-01-23T05:50:18.035Z,4.13
2023-01-23T05:53:20.779Z,4.25
2023-01-23T05:56:22.680Z,4.03
2023-01-23T05:59:25.169Z,3.70
2023-01-23T06:02:28.546Z,4.07
2023-01-23T06:05:30.978Z,3.85
2023-01-23T06:08:33.989Z,3.22
2023-01-23T06:11:36.618Z,3.35
2023-01-23T06:14:39.086Z,3.38
2023-01-23T06:17:44.375Z,3.57
2023-01-23T06:20:48.307Z,3.80
2023-01-23T06:23:50.866Z,3.60
2023-01-23T06:26:53.124Z,3.33
2023-01-23T06:29:55.197Z,3.85
2023-01-23T06:32:58.638Z,4.20
2023-01-23T06:36:06.900Z,4.32
2023-01-23T06:39:12.423Z,4.15
2023-01-23T06:42:17.113Z,4.13
2023-01-23T06:45:19.847Z,3.70
2023-01-23T06:48:22.520Z,2.57
2023-01-23T06:51:24.659Z,3.97
2023-01-23T06:54:28.963Z,4.22
2023-01-23T06:57:31.285Z,3.63
2023-01-23T07:00:44.698Z,4.18
2023-01-23T07:03:47.071Z,3.97
2023-01-23T07:06:51.311Z,3.85
2023-01-23T07:09:53.542Z,3.83
2023-01-23T07:12:56.232Z,3.33
2023-01-23T07:15:59.264Z,4.20
2023-01-23T07:19:27.450Z,3.87
2023-01-23T07:22:30.292Z,3.95
2023-01-23T07:25:35.824Z,4.30
2023-01-23T07:28:41.143Z,3.42
2023-01-23T07:31:48.274Z,4.07
2023-01-23T07:34:54.718Z,4.53
2023-01-23T07:37:57.535Z,3.85
2023-01-23T07:41:00.526Z,4.20
2023-01-23T07:44:07.513Z,5.13
2023-01-23T07:47:13.210Z,4.28
2023-01-23T07:50:15.870Z,4.13
2023-01-23T07:53:18.064Z,4.85
2023-01-23T07:56:20.267Z,5.00
2023-01-23T07:59:22.732Z,4.53
2023-01-23T08:02:26.110Z,5.07
2023-01-23T08:05:33.180Z,4.40
2023-01-23T08:08:37.132Z,5.38
2023-01-23T08:11:45.598Z,5.78
2023-01-23T08:14:48.639Z,4.70
2023-01-23T08:17:51.312Z,5.55
2023-01-23T08:20:58.495Z,5.47
2023-01-23T08:24:05.361Z,5.05
2023-01-23T08:27:08.227Z,5.95
2023-01-23T08:30:13.413Z,5.85
2023-01-23T08:33:16.375Z,5.68
2023-01-23T08:36:20.003Z,5.60
2023-01-23T08:39:24.819Z,5.32
2023-01-23T08:42:27.603Z,6.35
2023-01-23T08:45:30.268Z,5.80
2023-01-23T08:48:34.410Z,5.10
2023-01-23T08:51:37.788Z,6.70
2023-01-23T08:54:41.319Z,6.15
2023-01-23T08:57:46.547Z,6.18
2023-01-23T09:00:50.259Z,8.05
2023-01-23T09:03:55.378Z,6.57
2023-01-23T09:06:57.873Z,5.63
2023-01-23T09:10:01.086Z,6.22
2023-01-23T09:13:04.298Z,6.35
2023-01-23T09:16:08.796Z,6.43
2023-01-23T09:19:13.139Z,6.78
2023-01-23T09:22:16.772Z,6.73
2023-01-23T09:25:31.939Z,7.13
2023-01-23T09:28:37.445Z,7.63
2023-01-23T09:31:44.883Z,5.88
2023-01-23T09:34:55.271Z,6.68
2023-01-23T09:38:19.617Z,7.03
2023-01-23T09:41:31.709Z,6.75
2023-01-23T09:44:48.172Z,6.97
2023-01-23T09:48:08.343Z,7.53
2023-01-23T09:51:24.152Z,7.32
2023-01-23T09:54:48.981Z,5.80
2023-01-23T09:58:01.597Z,7.03
2023-01-23T10:01:03.737Z,7.22
2023-01-23T10:04:07.016Z,7.00
2023-01-23T10:07:53.786Z,8.23
2023-01-23T10:11:58.293Z,7.20
2023-01-23T10:15:53.652Z,6.85
2023-01-23T10:19:22.501Z,6.70
2023-01-23T10:26:59.301Z,5.20
2023-01-23T10:30:14.783Z,4.97
2023-01-23T10:33:22.008Z,4.88
2023-01-23T10:36:55.177Z,5.40
2023-01-23T10:40:12.730Z,4.50
2023-01-23T10:43:25.464Z,3.72
2023-01-23T10:46:49.653Z,2.83
2023-01-23T10:49:52.129Z,2.30
2023-01-23T10:53:14.288Z,3.30
2023-01-23T10:56:18.833Z,2.50
2023-01-23T10:59:26.583Z,3.97
2023-01-23T11:02:37.971Z,3.23
2023-01-23T11:06:55.721Z,2.90
2023-01-23T11:10:18.885Z,3.03
2023-01-23T11:13:31.154Z,3.13
2023-01-23T11:16:43.265Z,2.67
2023-01-23T11:19:56.904Z,3.17
2023-01-23T11:23:11.209Z,2.70
2023-01-23T11:26:34.418Z,3.05
2023-01-23T11:29:52.508Z,3.03
2023-01-23T11:33:02.153Z,2.90
2023-01-23T11:36:23.889Z,2.90
2023-01-23T11:39:43.279Z,2.63
2023-01-23T11:42:49.429Z,2.78
2023-01-23T11:46:16.971Z,3.47
2023-01-23T11:49:51.970Z,2.53
2023-01-23T11:53:16.147Z,3.77
2023-01-23T11:56:40.900Z,2.90
2023-01-23T12:00:43.349Z,3.10
2023-01-23T12:04:32.839Z,2.58
2023-01-23T12:08:11.405Z,3.03
2023-01-23T12:11:20.862Z,2.40
2023-01-23T12:14:41.837Z,2.70
2023-01-23T12:22:25.937Z,2.40
2023-01-23T12:25:39.549Z,2.38
2023-01-23T12:29:04.105Z,3.23
2023-01-23T12:32:45.002Z,2.67
2023-01-23T12:36:12.177Z,3.05
2023-01-23T12:39:36.807Z,2.80
2023-01-23T12:43:03.347Z,2.63
2023-01-23T12:46:16.513Z,2.87
2023-01-23T12:49:22.602Z,2.67
2023-01-23T12:52:42.324Z,3.00
2023-01-23T12:56:19.759Z,2.40
2023-01-23T12:59:49.889Z,2.95
2023-01-23T13:03:09.661Z,2.90
2023-01-23T13:06:50.359Z,2.85
2023-01-23T13:09:52.700Z,2.75
2023-01-23T13:12:57.181Z,3.10
2023-01-23T13:16:11.249Z,3.28
2023-01-23T13:20:03.596Z,3.00
2023-01-23T13:23:30.440Z,2.97
2023-01-23T13:26:37.465Z,3.40
2023-01-23T13:29:51.192Z,2.85
2023-01-23T13:33:47.093Z,3.13
2023-01-23T13:37:30.728Z,2.67
2023-01-23T13:40:36.189Z,3.00
2023-01-23T13:43:54.620Z,3.13
2023-01-23T14:25:47.374Z,3.05
2023-01-23T14:29:06.209Z,3.17
2023-01-23T14:32:25.579Z,3.38
2023-01-23T14:35:27.910Z,4.13
2023-01-23T14:38:35.179Z,3.08
2023-01-23T14:45:13.094Z,3.03
2023-01-23T14:48:20.754Z,2.78
2023-01-23T14:51:24.766Z,3.42
2023-01-23T14:54:33.011Z,3.67
2023-01-23T14:57:36.269Z,4.05
2023-01-23T15:00:40.611Z,3.80
2023-01-23T15:04:05.345Z,3.60
2023-01-23T15:07:17.281Z,4.32
2023-01-23T15:10:45.112Z,3.50
2023-01-23T15:13:54.931Z,3.92
2023-01-23T15:17:03.268Z,3.97
2023-01-23T15:20:26.872Z,3.70
2023-01-23T15:24:05.906Z,3.42
2023-01-23T15:27:37.372Z,3.83
2023-01-23T15:30:49.177Z,3.88
2023-01-23T15:33:55.384Z,3.67
2023-01-23T15:37:15.851Z,3.40
2023-01-23T15:40:27.855Z,3.13
2023-01-23T15:43:33.604Z,3.95
2023-01-23T15:46:36.567Z,4.30
2023-01-23T15:49:43.144Z,3.97
2023-01-23T15:52:54.065Z,3.85
2023-01-23T15:55:56.614Z,5.60
2023-01-23T15:59:01.358Z,4.70
2023-01-23T16:02:29.054Z,4.50
2023-01-23T16:05:37.229Z,4.57
2023-01-23T16:08:39.588Z,4.40
2023-01-23T16:11:42.093Z,4.00
2023-01-23T16:14:45.033Z,4.00
2023-01-23T16:17:50.724Z,3.72
2023-01-23T16:20:52.737Z,4.10
2023-01-23T16:23:55.734Z,3.72
2023-01-23T16:27:01.747Z,4.78
2023-01-23T16:30:04.129Z,3.55
2023-01-23T16:33:10.162Z,4.18
2023-01-23T16:36:23.364Z,4.43
2023-01-23T16:39:32.470Z,4.78
2023-01-23T16:42:35.081Z,5.10
2023-01-23T16:45:37.066Z,5.10
2023-01-23T16:48:39.128Z,5.50
2023-01-23T16:51:51.907Z,5.03
2023-01-23T16:54:55.308Z,5.15
2023-01-23T16:57:58.382Z,5.80
2023-01-23T17:01:10.922Z,5.72
2023-01-23T17:04:16.629Z,6.10
2023-01-23T17:07:20.437Z,7.80
2023-01-23T17:10:29.780Z,6.15
2023-01-23T17:13:37.275Z,6.00
2023-01-23T17:16:40.085Z,7.97
2023-01-23T17:19:57.046Z,6.57
2023-01-23T17:22:59.381Z,7.07
2023-01-23T17:26:02.565Z,6.78
2023-01-23T17:29:04.524Z,7.28
2023-01-23T17:32:06.891Z,6.72
2023-01-23T17:35:24.606Z,7.60
2023-01-23T17:38:32.065Z,6.93
2023-01-23T17:41:34.735Z,7.30
2023-01-23T17:44:36.996Z,7.82
2023-01-23T17:47:44.888Z,7.47
2023-01-23T17:50:49.396Z,7.80
2023-01-23T17:53:55.380Z,7.70
2023-01-23T17:57:02.699Z,8.05
2023-01-23T18:00:06.767Z,8.20
2023-01-23T18:03:15.399Z,7.40
2023-01-23T18:06:19.707Z,8.20
2023-01-23T18:09:22.473Z,7.43
2023-01-23T18:12:38.599Z,7.22
2023-01-23T18:16:01.072Z,8.38
2023-01-23T18:19:25.389Z,7.25
2023-01-23T18:22:28.808Z,7.60
2023-01-23T18:25:33.896Z,7.50
2023-01-23T18:28:51.424Z,8.18
2023-01-23T18:32:15.146Z,7.80
2023-01-23T18:35:48.553Z,7.40
2023-01-23T18:39:32.146Z,7.20
2023-01-23T18:42:50.841Z,8.17
2023-01-23T18:45:55.650Z,8.27
2023-01-23T18:49:00.842Z,8.10
2023-01-23T18:52:13.525Z,8.52
2023-01-23T18:55:24.998Z,8.15
2023-01-23T18:59:12.405Z,7.13
2023-01-23T19:02:42.266Z,8.20
2023-01-23T19:05:47.156Z,8.45
2023-01-23T19:08:51.942Z,8.10
2023-01-23T19:12:29.236Z,7.80
2023-01-23T19:15:37.832Z,7.90
2023-01-23T19:18:41.169Z,8.82
2023-01-23T19:21:49.198Z,8.55
2023-01-23T19:24:52.339Z,8.15
2023-01-23T19:27:58.082Z,7.80
2023-01-23T19:31:01.116Z,8.60
2023-01-23T19:34:06.279Z,7.93
2023-01-23T19:37:08.980Z,7.78
2023-01-23T19:40:18.695Z,7.55
2023-01-23T19:43:21.395Z,7.30
2023-01-23T19:46:30.372Z,6.80
2023-01-23T19:49:34.078Z,7.72
2023-01-23T19:52:38.035Z,6.13
2023-01-23T19:55:41.255Z,7.40
2023-01-23T19:58:44.019Z,7.38
2023-01-23T20:01:49.634Z,7.80
2023-01-23T20:04:52.054Z,7.43
2023-01-23T20:07:54.579Z,8.55
2023-01-23T20:10:57.239Z,7.80
2023-01-23T20:14:08.497Z,8.20
2023-01-23T20:17:16.435Z,6.80
2023-01-23T20:20:19.759Z,7.82
2023-01-23T20:23:22.275Z,7.07
2023-01-23T20:26:24.900Z,6.75
2023-01-23T20:29:29.089Z,7.82
2023-01-23T20:32:34.359Z,7.20
2023-01-23T20:35:39.941Z,8.07
2023-01-23T20:38:43.424Z,6.72
2023-01-23T20:41:45.628Z,7.03
2023-01-23T20:44:47.884Z,7.68
2023-01-23T20:47:50.190Z,7.03
2023-01-23T20:50:54.594Z,7.30
2023-01-23T20:53:58.087Z,7.10
2023-01-23T20:57:01.407Z,7.68
2023-01-23T21:00:04.487Z,8.07
2023-01-23T21:03:08.179Z,7.90
2023-01-23T21:06:11.756Z,7.68
2023-01-23T21:09:14.118Z,7.90
2023-01-23T21:12:18.898Z,7.38
2023-01-23T21:15:21.211Z,7.43
2023-01-23T21:18:23.296Z,7.23
2023-01-23T21:22:06.390Z,8.00
2023-01-23T21:25:09.009Z,8.13
2023-01-23T21:28:13.467Z,7.68
2023-01-23T21:31:21.301Z,8.10
2023-01-23T21:34:24.866Z,8.47
2023-01-23T21:37:27.289Z,8.18
2023-01-23T21:40:29.801Z,8.10
2023-01-23T21:43:32.662Z,7.13
2023-01-23T21:46:34.964Z,7.60
2023-01-23T21:49:37.548Z,8.13
2023-01-23T21:52:40.037Z,8.93
2023-01-23T21:55:42.164Z,8.30
2023-01-23T21:58:45.539Z,8.10
2023-01-23T22:01:47.779Z,8.27
2023-01-23T22:04:50.336Z,8.10
2023-01-23T22:07:52.328Z,8.57
2023-01-23T22:10:54.353Z,7.95
2023-01-23T22:13:56.609Z,7.93
2023-01-23T22:16:58.455Z,8.85
2023-01-23T22:20:02.191Z,9.80
2023-01-23T22:23:04.326Z,8.65
2023-01-23T22:26:09.242Z,8.68
2023-01-23T22:29:16.711Z,9.23
2023-01-23T22:32:19.487Z,12.88
2023-01-23T22:35:21.883Z,12.23
2023-01-23T22:38:24.372Z,12.40
2023-01-23T22:41:26.775Z,14.80
2023-01-23T22:44:30.143Z,12.00
2023-01-23T22:47:32.189Z,10.80
2023-01-23T22:50:34.453Z,10.90
2023-01-23T22:53:36.430Z,10.40
2023-01-23T22:56:38.756Z,11.90
2023-01-23T22:59:40.717Z,11.35
2023-01-23T23:02:42.778Z,20.08
2023-01-23T23:05:45.255Z,19.83
2023-01-23T23:08:48.517Z,16.77
2023-01-23T23:11:51.879Z,18.20
2023-01-23T23:14:54.096Z,16.35
2023-01-23T23:17:57.004Z,15.68
2023-01-23T23:21:08.509Z,14.00
2023-01-23T23:24:12.922Z,13.52
2023-01-23T23:27:15.032Z,16.90
2023-01-23T23:30:17.489Z,16.88
2023-01-23T23:33:20.635Z,15.75
2023-01-23T23:36:23.037Z,13.80
2023-01-23T23:39:26.054Z,13.43
2023-01-23T23:42:27.989Z,13.38
2023-01-23T23:45:30.147Z,12.57
2023-01-23T23:48:34.312Z,12.43
2023-01-23T23:51:36.498Z,14.30
2023-01-23T23:54:38.712Z,13.95
2023-01-23T23:57:41.931Z,12.90
